sensor_id;sensor_type;location;lat;lon;timestamp;temperature;humidity
19385;DHT22;9828;54.122;17.974;2023-05-21T00:02:31;15.10;99.90
19385;DHT22;9828;54.122;17.974;2023-05-21T00:07:58;15.10;99.90
19385;DHT22;9828;54.122;17.974;2023-05-21T00:13:19;15.10;99.90
19385;DHT22;9828;54.122;17.974;2023-05-21T00:18:40;15.10;99.90
19385;DHT22;9828;54.122;17.974;2023-05-21T00:24:02;15.20;99.90
19385;DHT22;9828;54.122;17.974;2023-05-21T00:29:23;15.20;99.90
19385;DHT22;9828;54.122;17.974;2023-05-21T00:34:44;15.20;99.90
19385;DHT22;9828;54.122;17.974;2023-05-21T00:40:06;15.20;99.90
19385;DHT22;9828;54.122;17.974;2023-05-21T00:45:31;15.20;99.90
19385;DHT22;9828;54.122;17.974;2023-05-21T00:50:52;15.30;99.90
19385;DHT22;9828;54.122;17.974;2023-05-21T00:56:13;15.30;99.90
19385;DHT22;9828;54.122;17.974;2023-05-21T01:01:34;15.30;99.90
19385;DHT22;9828;54.122;17.974;2023-05-21T01:06:56;15.30;99.90
19385;DHT22;9828;54.122;17.974;2023-05-21T01:12:19;15.20;99.90
19385;DHT22;9828;54.122;17.974;2023-05-21T01:17:40;15.20;99.90
19385;DHT22;9828;54.122;17.974;2023-05-21T01:23:02;15.20;99.90
19385;DHT22;9828;54.122;17.974;2023-05-21T01:28:23;15.20;99.90
19385;DHT22;9828;54.122;17.974;2023-05-21T01:33:48;15.20;99.90
19385;DHT22;9828;54.122;17.974;2023-05-21T01:39:24;15.10;99.90
19385;DHT22;9828;54.122;17.974;2023-05-21T01:44:47;15.10;99.90
19385;DHT22;9828;54.122;17.974;2023-05-21T01:50:08;15.10;99.90
19385;DHT22;9828;54.122;17.974;2023-05-21T01:55:31;15.10;99.90
19385;DHT22;9828;54.122;17.974;2023-05-21T02:00:53;15.10;99.90
19385;DHT22;9828;54.122;17.974;2023-05-21T02:06:14;15.10;99.90
19385;DHT22;9828;54.122;17.974;2023-05-21T02:11:35;15.10;99.90
19385;DHT22;9828;54.122;17.974;2023-05-21T02:16:56;15.10;99.90
19385;DHT22;9828;54.122;17.974;2023-05-21T02:22:17;15.10;99.90
19385;DHT22;9828;54.122;17.974;2023-05-21T02:27:39;15.00;99.90
19385;DHT22;9828;54.122;17.974;2023-05-21T02:33:02;15.00;99.90
19385;DHT22;9828;54.122;17.974;2023-05-21T02:38:23;14.90;99.90
19385;DHT22;9828;54.122;17.974;2023-05-21T02:43:45;14.90;99.90
19385;DHT22;9828;54.122;17.974;2023-05-21T02:49:07;14.90;99.90
19385;DHT22;9828;54.122;17.974;2023-05-21T02:54:28;14.90;99.90
19385;DHT22;9828;54.122;17.974;2023-05-21T02:59:49;14.80;99.90
19385;DHT22;9828;54.122;17.974;2023-05-21T03:05:11;14.80;99.90
19385;DHT22;9828;54.122;17.974;2023-05-21T03:10:33;14.80;99.90
19385;DHT22;9828;54.122;17.974;2023-05-21T03:15:55;14.80;99.90
19385;DHT22;9828;54.122;17.974;2023-05-21T03:21:16;14.80;99.90
19385;DHT22;9828;54.122;17.974;2023-05-21T03:26:37;14.80;99.90
19385;DHT22;9828;54.122;17.974;2023-05-21T03:31:59;14.80;99.90
19385;DHT22;9828;54.122;17.974;2023-05-21T03:37:22;14.90;99.90
19385;DHT22;9828;54.122;17.974;2023-05-21T03:42:43;14.90;99.90
19385;DHT22;9828;54.122;17.974;2023-05-21T03:48:05;14.90;99.90
19385;DHT22;9828;54.122;17.974;2023-05-21T03:53:26;14.90;99.90
19385;DHT22;9828;54.122;17.974;2023-05-21T03:58:48;14.90;99.90
19385;DHT22;9828;54.122;17.974;2023-05-21T04:04:09;14.90;99.90
19385;DHT22;9828;54.122;17.974;2023-05-21T04:09:31;14.90;99.90
19385;DHT22;9828;54.122;17.974;2023-05-21T04:14:53;15.00;99.90
19385;DHT22;9828;54.122;17.974;2023-05-21T04:20:14;15.00;99.90
19385;DHT22;9828;54.122;17.974;2023-05-21T04:25:37;15.10;99.90
19385;DHT22;9828;54.122;17.974;2023-05-21T04:30:59;15.10;99.90
19385;DHT22;9828;54.122;17.974;2023-05-21T04:36:21;15.20;99.90
19385;DHT22;9828;54.122;17.974;2023-05-21T04:41:42;15.30;99.90
19385;DHT22;9828;54.122;17.974;2023-05-21T04:47:04;15.40;99.90
19385;DHT22;9828;54.122;17.974;2023-05-21T04:52:44;15.40;99.90
19385;DHT22;9828;54.122;17.974;2023-05-21T04:58:05;15.50;99.90
19385;DHT22;9828;54.122;17.974;2023-05-21T05:03:28;15.60;99.90
19385;DHT22;9828;54.122;17.974;2023-05-21T05:08:52;15.70;99.90
19385;DHT22;9828;54.122;17.974;2023-05-21T05:14:14;15.80;99.90
19385;DHT22;9828;54.122;17.974;2023-05-21T05:19:36;15.90;99.90
19385;DHT22;9828;54.122;17.974;2023-05-21T05:24:57;16.10;99.90
19385;DHT22;9828;54.122;17.974;2023-05-21T05:30:19;16.20;99.80
19385;DHT22;9828;54.122;17.974;2023-05-21T05:35:41;16.30;99.00
19385;DHT22;9828;54.122;17.974;2023-05-21T05:41:02;16.50;97.30
19385;DHT22;9828;54.122;17.974;2023-05-21T05:46:23;16.60;97.00
19385;DHT22;9828;54.122;17.974;2023-05-21T05:51:45;16.70;96.30
19385;DHT22;9828;54.122;17.974;2023-05-21T05:57:06;16.90;96.40
19385;DHT22;9828;54.122;17.974;2023-05-21T06:02:28;17.00;95.00
19385;DHT22;9828;54.122;17.974;2023-05-21T06:07:49;17.20;95.20
19385;DHT22;9828;54.122;17.974;2023-05-21T06:13:12;17.40;94.50
19385;DHT22;9828;54.122;17.974;2023-05-21T06:18:33;17.60;93.80
19385;DHT22;9828;54.122;17.974;2023-05-21T06:23:54;17.90;91.70
19385;DHT22;9828;54.122;17.974;2023-05-21T06:29:15;18.20;89.40
19385;DHT22;9828;54.122;17.974;2023-05-21T06:34:39;18.70;79.50
19385;DHT22;9828;54.122;17.974;2023-05-21T06:40:01;19.30;67.10
19385;DHT22;9828;54.122;17.974;2023-05-21T06:45:24;19.90;50.00
19385;DHT22;9828;54.122;17.974;2023-05-21T06:50:50;20.60;40.80
19385;DHT22;9828;54.122;17.974;2023-05-21T06:56:12;21.20;35.70
19385;DHT22;9828;54.122;17.974;2023-05-21T07:01:35;21.80;30.50
19385;DHT22;9828;54.122;17.974;2023-05-21T07:06:56;22.10;28.00
19385;DHT22;9828;54.122;17.974;2023-05-21T07:12:18;22.40;25.60
19385;DHT22;9828;54.122;17.974;2023-05-21T07:17:40;23.00;23.90
19385;DHT22;9828;54.122;17.974;2023-05-21T07:23:02;23.60;21.40
19385;DHT22;9828;54.122;17.974;2023-05-21T07:28:23;24.00;19.70
19385;DHT22;9828;54.122;17.974;2023-05-21T07:33:44;24.50;18.60
19385;DHT22;9828;54.122;17.974;2023-05-21T07:39:06;24.80;16.60
19385;DHT22;9828;54.122;17.974;2023-05-21T07:44:29;25.00;16.00
19385;DHT22;9828;54.122;17.974;2023-05-21T07:49:51;24.90;15.60
19385;DHT22;9828;54.122;17.974;2023-05-21T07:55:13;25.00;15.10
19385;DHT22;9828;54.122;17.974;2023-05-21T08:00:42;25.20;14.80
19385;DHT22;9828;54.122;17.974;2023-05-21T08:06:05;25.60;14.30
19385;DHT22;9828;54.122;17.974;2023-05-21T08:11:27;26.20;12.70
19385;DHT22;9828;54.122;17.974;2023-05-21T08:16:48;26.60;11.60
19385;DHT22;9828;54.122;17.974;2023-05-21T08:22:10;27.00;10.40
19385;DHT22;9828;54.122;17.974;2023-05-21T08:27:36;27.30;9.70
19385;DHT22;9828;54.122;17.974;2023-05-21T09:00:17;28.30;31.60
19385;DHT22;9828;54.122;17.974;2023-05-21T09:05:42;28.40;5.00
19385;DHT22;9828;54.122;17.974;2023-05-21T09:11:03;28.50;4.90
19385;DHT22;9828;54.122;17.974;2023-05-21T09:16:30;28.50;4.90
19385;DHT22;9828;54.122;17.974;2023-05-21T09:21:52;28.50;4.80
19385;DHT22;9828;54.122;17.974;2023-05-21T09:27:17;28.70;4.10
19385;DHT22;9828;54.122;17.974;2023-05-21T09:32:39;28.40;4.00
19385;DHT22;9828;54.122;17.974;2023-05-21T09:38:01;28.90;3.60
19385;DHT22;9828;54.122;17.974;2023-05-21T09:43:28;29.00;3.10
19385;DHT22;9828;54.122;17.974;2023-05-21T09:48:50;29.00;3.30
19385;DHT22;9828;54.122;17.974;2023-05-21T09:54:12;29.10;3.10
19385;DHT22;9828;54.122;17.974;2023-05-21T09:59:38;29.00;2.20
19385;DHT22;9828;54.122;17.974;2023-05-21T10:04:59;29.30;2.10
19385;DHT22;9828;54.122;17.974;2023-05-21T10:10:21;29.60;4.30
19385;DHT22;9828;54.122;17.974;2023-05-21T10:15:44;29.30;1.90
19385;DHT22;9828;54.122;17.974;2023-05-21T10:21:08;29.40;1.30
19385;DHT22;9828;54.122;17.974;2023-05-21T10:26:29;29.60;1.20
19385;DHT22;9828;54.122;17.974;2023-05-21T10:31:51;29.30;1.00
19385;DHT22;9828;54.122;17.974;2023-05-21T10:37:13;29.50;1.00
19385;DHT22;9828;54.122;17.974;2023-05-21T11:04:46;29.70;1.00
19385;DHT22;9828;54.122;17.974;2023-05-21T11:21:50;30.00;1.20
19385;DHT22;9828;54.122;17.974;2023-05-21T11:27:11;29.80;1.00
19385;DHT22;9828;54.122;17.974;2023-05-21T11:32:42;29.80;1.10
19385;DHT22;9828;54.122;17.974;2023-05-21T11:38:20;29.80;1.00
19385;DHT22;9828;54.122;17.974;2023-05-21T11:43:42;29.90;1.00
19385;DHT22;9828;54.122;17.974;2023-05-21T11:49:04;29.90;5.50
19385;DHT22;9828;54.122;17.974;2023-05-21T11:54:26;29.80;1.00
19385;DHT22;9828;54.122;17.974;2023-05-21T11:59:48;29.90;1.00
19385;DHT22;9828;54.122;17.974;2023-05-21T12:05:11;29.80;1.00
19385;DHT22;9828;54.122;17.974;2023-05-21T12:10:32;29.60;1.00
19385;DHT22;9828;54.122;17.974;2023-05-21T12:15:53;29.60;1.00
19385;DHT22;9828;54.122;17.974;2023-05-21T12:21:14;29.40;1.00
19385;DHT22;9828;54.122;17.974;2023-05-21T12:26:36;29.30;1.00
19385;DHT22;9828;54.122;17.974;2023-05-21T12:32:01;29.30;1.00
19385;DHT22;9828;54.122;17.974;2023-05-21T12:37:24;29.20;1.00
19385;DHT22;9828;54.122;17.974;2023-05-21T12:42:45;29.10;1.00
19385;DHT22;9828;54.122;17.974;2023-05-21T12:48:06;28.90;1.00
19385;DHT22;9828;54.122;17.974;2023-05-21T13:06:41;29.00;1.00
19385;DHT22;9828;54.122;17.974;2023-05-21T13:12:02;28.80;1.00
19385;DHT22;9828;54.122;17.974;2023-05-21T13:17:25;28.50;1.60
19385;DHT22;9828;54.122;17.974;2023-05-21T13:22:48;28.20;1.60
19385;DHT22;9828;54.122;17.974;2023-05-21T13:28:10;28.20;1.40
19385;DHT22;9828;54.122;17.974;2023-05-21T13:33:35;28.20;1.20
19385;DHT22;9828;54.122;17.974;2023-05-21T13:38:56;27.90;2.20
19385;DHT22;9828;54.122;17.974;2023-05-21T13:44:17;28.10;1.60
19385;DHT22;9828;54.122;17.974;2023-05-21T13:49:38;28.20;2.40
19385;DHT22;9828;54.122;17.974;2023-05-21T13:55:00;27.70;4.20
19385;DHT22;9828;54.122;17.974;2023-05-21T14:00:21;27.00;5.10
19385;DHT22;9828;54.122;17.974;2023-05-21T14:05:42;26.70;5.80
19385;DHT22;9828;54.122;17.974;2023-05-21T14:11:03;26.60;5.70
19385;DHT22;9828;54.122;17.974;2023-05-21T14:16:25;26.60;5.40
19385;DHT22;9828;54.122;17.974;2023-05-21T14:21:47;26.60;5.30
19385;DHT22;9828;54.122;17.974;2023-05-21T14:27:08;26.60;5.70
19385;DHT22;9828;54.122;17.974;2023-05-21T14:32:29;26.60;4.90
19385;DHT22;9828;54.122;17.974;2023-05-21T14:37:52;26.20;5.10
19385;DHT22;9828;54.122;17.974;2023-05-21T14:43:13;26.10;5.80
19385;DHT22;9828;54.122;17.974;2023-05-21T14:48:34;26.20;5.70
19385;DHT22;9828;54.122;17.974;2023-05-21T14:53:55;26.00;5.50
19385;DHT22;9828;54.122;17.974;2023-05-21T14:59:17;25.90;5.90
19385;DHT22;9828;54.122;17.974;2023-05-21T15:04:38;25.70;7.70
19385;DHT22;9828;54.122;17.974;2023-05-21T15:09:59;25.40;5.90
19385;DHT22;9828;54.122;17.974;2023-05-21T15:15:20;25.20;6.00
19385;DHT22;9828;54.122;17.974;2023-05-21T15:20:41;25.10;6.00
19385;DHT22;9828;54.122;17.974;2023-05-21T15:26:02;25.10;6.00
19385;DHT22;9828;54.122;17.974;2023-05-21T15:31:23;24.70;6.10
19385;DHT22;9828;54.122;17.974;2023-05-21T15:36:45;24.60;6.40
19385;DHT22;9828;54.122;17.974;2023-05-21T15:42:06;24.60;6.50
19385;DHT22;9828;54.122;17.974;2023-05-21T15:47:27;24.70;6.40
19385;DHT22;9828;54.122;17.974;2023-05-21T15:52:47;24.60;6.30
19385;DHT22;9828;54.122;17.974;2023-05-21T15:58:10;24.60;6.80
19385;DHT22;9828;54.122;17.974;2023-05-21T16:03:31;24.50;6.70
19385;DHT22;9828;54.122;17.974;2023-05-21T16:08:52;24.50;6.30
19385;DHT22;9828;54.122;17.974;2023-05-21T16:14:15;24.40;6.40
19385;DHT22;9828;54.122;17.974;2023-05-21T16:19:36;24.30;8.30
19385;DHT22;9828;54.122;17.974;2023-05-21T16:24:57;24.10;6.30
19385;DHT22;9828;54.122;17.974;2023-05-21T16:30:20;24.00;6.70
19385;DHT22;9828;54.122;17.974;2023-05-21T16:35:41;23.80;6.60
19385;DHT22;9828;54.122;17.974;2023-05-21T16:41:02;23.60;6.70
19385;DHT22;9828;54.122;17.974;2023-05-21T16:46:23;23.30;6.80
19385;DHT22;9828;54.122;17.974;2023-05-21T16:51:44;23.10;6.60
19385;DHT22;9828;54.122;17.974;2023-05-21T16:57:05;23.00;6.80
19385;DHT22;9828;54.122;17.974;2023-05-21T17:02:26;22.90;6.30
19385;DHT22;9828;54.122;17.974;2023-05-21T17:07:47;22.80;5.90
19385;DHT22;9828;54.122;17.974;2023-05-21T17:13:08;22.70;5.90
19385;DHT22;9828;54.122;17.974;2023-05-21T17:18:37;22.60;7.90
19385;DHT22;9828;54.122;17.974;2023-05-21T17:23:59;22.50;10.70
19385;DHT22;9828;54.122;17.974;2023-05-21T17:29:20;22.50;18.30
19385;DHT22;9828;54.122;17.974;2023-05-21T17:34:41;22.30;10.00
19385;DHT22;9828;54.122;17.974;2023-05-21T17:40:03;22.00;5.90
19385;DHT22;9828;54.122;17.974;2023-05-21T17:45:25;21.90;6.40
19385;DHT22;9828;54.122;17.974;2023-05-21T17:50:46;21.70;6.50
19385;DHT22;9828;54.122;17.974;2023-05-21T17:56:07;21.50;7.00
19385;DHT22;9828;54.122;17.974;2023-05-21T18:01:30;21.50;7.60
19385;DHT22;9828;54.122;17.974;2023-05-21T18:06:51;21.30;8.00
19385;DHT22;9828;54.122;17.974;2023-05-21T18:12:12;21.20;8.50
19385;DHT22;9828;54.122;17.974;2023-05-21T18:17:33;21.00;8.30
19385;DHT22;9828;54.122;17.974;2023-05-21T18:22:54;20.90;8.50
19385;DHT22;9828;54.122;17.974;2023-05-21T18:28:15;20.70;8.90
19385;DHT22;9828;54.122;17.974;2023-05-21T18:33:36;20.50;9.20
19385;DHT22;9828;54.122;17.974;2023-05-21T18:38:58;20.40;9.40
19385;DHT22;9828;54.122;17.974;2023-05-21T18:44:18;20.20;9.70
19385;DHT22;9828;54.122;17.974;2023-05-21T18:49:39;20.10;9.80
19385;DHT22;9828;54.122;17.974;2023-05-21T18:55:00;19.90;9.70
19385;DHT22;9828;54.122;17.974;2023-05-21T19:00:22;19.70;9.70
19385;DHT22;9828;54.122;17.974;2023-05-21T19:05:43;19.60;9.80
19385;DHT22;9828;54.122;17.974;2023-05-21T19:11:04;19.50;9.90
19385;DHT22;9828;54.122;17.974;2023-05-21T19:16:26;19.40;9.80
19385;DHT22;9828;54.122;17.974;2023-05-21T19:21:47;19.30;10.00
19385;DHT22;9828;54.122;17.974;2023-05-21T19:27:08;19.20;10.30
19385;DHT22;9828;54.122;17.974;2023-05-21T19:32:29;19.10;10.20
19385;DHT22;9828;54.122;17.974;2023-05-21T19:37:51;19.00;10.30
19385;DHT22;9828;54.122;17.974;2023-05-21T19:43:14;18.90;10.20
19385;DHT22;9828;54.122;17.974;2023-05-21T19:48:35;18.80;10.40
19385;DHT22;9828;54.122;17.974;2023-05-21T19:53:56;18.80;10.50
19385;DHT22;9828;54.122;17.974;2023-05-21T19:59:17;18.80;10.60
19385;DHT22;9828;54.122;17.974;2023-05-21T20:04:38;18.60;10.80
19385;DHT22;9828;54.122;17.974;2023-05-21T20:09:59;18.60;11.20
19385;DHT22;9828;54.122;17.974;2023-05-21T20:15:20;18.50;11.60
19385;DHT22;9828;54.122;17.974;2023-05-21T20:20:42;18.40;11.90
19385;DHT22;9828;54.122;17.974;2023-05-21T20:26:03;18.20;12.20
19385;DHT22;9828;54.122;17.974;2023-05-21T20:31:24;18.20;12.60
19385;DHT22;9828;54.122;17.974;2023-05-21T20:36:47;18.10;13.00
19385;DHT22;9828;54.122;17.974;2023-05-21T20:42:07;18.00;13.20
19385;DHT22;9828;54.122;17.974;2023-05-21T20:47:30;17.80;13.60
19385;DHT22;9828;54.122;17.974;2023-05-21T20:53:17;17.80;13.90
19385;DHT22;9828;54.122;17.974;2023-05-21T20:58:38;17.70;14.30
19385;DHT22;9828;54.122;17.974;2023-05-21T21:03:59;17.50;14.60
19385;DHT22;9828;54.122;17.974;2023-05-21T21:09:20;17.40;15.00
19385;DHT22;9828;54.122;17.974;2023-05-21T21:14:41;17.40;15.30
19385;DHT22;9828;54.122;17.974;2023-05-21T21:20:02;17.30;15.60
19385;DHT22;9828;54.122;17.974;2023-05-21T21:25:25;17.20;15.90
19385;DHT22;9828;54.122;17.974;2023-05-21T21:30:46;17.10;16.00
19385;DHT22;9828;54.122;17.974;2023-05-21T21:36:10;17.00;16.30
19385;DHT22;9828;54.122;17.974;2023-05-21T21:41:32;16.90;16.50
19385;DHT22;9828;54.122;17.974;2023-05-21T21:46:53;16.90;17.00
19385;DHT22;9828;54.122;17.974;2023-05-21T21:52:15;16.80;17.10
19385;DHT22;9828;54.122;17.974;2023-05-21T21:57:37;16.80;17.20
19385;DHT22;9828;54.122;17.974;2023-05-21T22:02:58;16.70;17.70
19385;DHT22;9828;54.122;17.974;2023-05-21T22:08:19;16.60;17.80
19385;DHT22;9828;54.122;17.974;2023-05-21T22:13:41;16.60;18.20
19385;DHT22;9828;54.122;17.974;2023-05-21T22:19:02;16.50;18.60
19385;DHT22;9828;54.122;17.974;2023-05-21T22:24:23;16.40;18.70
19385;DHT22;9828;54.122;17.974;2023-05-21T22:29:50;16.30;18.80
19385;DHT22;9828;54.122;17.974;2023-05-21T22:35:11;16.30;19.20
19385;DHT22;9828;54.122;17.974;2023-05-21T22:40:33;16.20;19.20
19385;DHT22;9828;54.122;17.974;2023-05-21T22:45:54;16.20;19.30
19385;DHT22;9828;54.122;17.974;2023-05-21T22:51:15;16.10;19.70
19385;DHT22;9828;54.122;17.974;2023-05-21T22:56:36;16.10;19.90
19385;DHT22;9828;54.122;17.974;2023-05-21T23:01:58;16.10;20.30
19385;DHT22;9828;54.122;17.974;2023-05-21T23:07:19;16.00;20.60
19385;DHT22;9828;54.122;17.974;2023-05-21T23:12:40;15.90;20.80
19385;DHT22;9828;54.122;17.974;2023-05-21T23:18:01;16.00;21.10
19385;DHT22;9828;54.122;17.974;2023-05-21T23:23:23;15.90;21.50
19385;DHT22;9828;54.122;17.974;2023-05-21T23:28:44;15.80;21.90
19385;DHT22;9828;54.122;17.974;2023-05-21T23:34:05;15.80;22.10
19385;DHT22;9828;54.122;17.974;2023-05-21T23:39:26;15.70;99.90
19385;DHT22;9828;54.122;17.974;2023-05-21T23:44:48;15.70;99.90
19385;DHT22;9828;54.122;17.974;2023-05-21T23:50:09;15.70;99.90
19385;DHT22;9828;54.122;17.974;2023-05-21T23:55:30;15.60;99.90
